Mc Guire Air Force Base
KWRI : now visible

Aeroporto :











RITROVATECI SU...

 
LOGIN :

Iscrizione | Disclaimer

   EN    FR    IT 

 









Sommario :    VFR   VFR Marginale   IFR   IFR Intensivo   IFR Molto Intensivo
Visibilità : 
Base nubi : 
>= 8 km
>= 3000ft
5 / 8 km
1000 / 3000 ft
1500m / 5 km
500 / 1000 ft
800 / 1500m
200 / 500 ft
< 800m
< 200 ft
Simboli :   Temporali  Nebbia  Neve Forte  Precipitazioni Forti  Vento > 20 kt






- Altitudine del aeroporto : 131 ft
- Codice IATA : WRI


KWRI - Mc Guire Air Force Base

ULTIMO METAR :
  • 202356Z AUTO 31007KT 10SM SCT070 06/00 A3007 RMK AO2 SLP183 T00581005 10103 20058 52026

METARs OBSOLETI :
  • 202256Z AUTO 32012G18KT 10SM SCT035 BKN075 07/00 A3005 RMK AO2 PK WND 32026/05 SLP176 T00710001
  • 202156Z AUTO 32013G18KT 10SM FEW037 OVC070 08/00 A3002 RMK AO2 SLP166 T00761001

TAF TAF KWRI
Valido dal 20 a 18 ore il 22 a 00 ore UTC


201800Z 2018/2124 33015G25KT 9999 SCT070 SCT150 QNH2995INS
BECMG 2021/2022 32010KT 9999 SCT050 QNH2999INS
BECMG 2102/2103 31005KT 9999 SKC QNH3010INS
BECMG 2114/2115 29010G15KT 9999 SKC QNH3006INS TX11/2019Z TN00/2110Z



MetMap, La meteo Aeronautica in un colpo d'occhio ! - Copyright ORBIFLY Dicembre 2007 - Disclaimer

ORBIFLY MET'MAP TEAM :

Programmazione e sviluppo : Alexandra Zaïnal
Concezione e sviluppo : Baudouin d'Aumeries
Co-Programmazione e sviluppo : Marc-Olivier Méhu
Supporto tecnico e logistico : Manuel Goepfert
Aiuto per la traduzione : Arnaldo La Scala

Contatto : metmap@orbifly.com




FONTI E CREDITI :

   NOAA       Earth
Advisory